Archival Weather

Chicago O'Hare International

Chicago, Illinois (KORD)

Report from: Thursday, April 13, 2023 10:51 PM CDT
Current time: Sunday, February 25, 2024 3:48 PM CST

Current weather – Weather history – Daily summaries
Weather forecast

Temperature21.1°C (70.0°F)
Dew point1.1°C (34.0°F)
Winds 7 kts (3.6 m/s, 8.1 mph) South-Southwest (200°)
Visibility10 mi. (16.1 km)
Clouds Few clouds 25,000 ft. (7,620 m)
Altimeter29.79 in.Hg (1009 mB)
Relative humidity26 %
Density altitude978 ft. (298 m)
Sea-level pressure100.8 kPa (1008 mB, 29.78 in.Hg)
Remarks Automated weather observing station with precipitation discriminator
Flight conditions Visual Meteorological Conditions
Raw dataKORD 140351Z 20007KT 10SM FEW250 21/01 A2979 RMK AO2 SLP084 T02110011
An error has occurred. This application may no longer respond until reloaded. Reload 🗙